createdAt,value
2023-02-28T00:01:19.266Z,0.50
2023-02-28T00:03:46.345Z,0.50
2023-02-28T00:06:13.414Z,0.50
2023-02-28T00:08:40.682Z,0.50
2023-02-28T00:11:10.665Z,0.50
2023-02-28T00:13:43.854Z,0.50
2023-02-28T00:16:14.497Z,0.60
2023-02-28T00:18:42.124Z,0.60
2023-02-28T00:21:09.578Z,0.70
2023-02-28T00:23:37.082Z,0.70
2023-02-28T00:26:04.537Z,0.70
2023-02-28T00:28:36.133Z,0.70
2023-02-28T00:33:57.422Z,0.80
2023-02-28T00:36:25.778Z,0.90
2023-02-28T00:38:53.495Z,0.90
2023-02-28T00:41:21.455Z,1.00
2023-02-28T00:43:49.709Z,0.90
2023-02-28T00:46:17.547Z,1.00
2023-02-28T00:48:45.713Z,0.90
2023-02-28T00:51:12.699Z,1.00
2023-02-28T00:53:39.701Z,1.00
2023-02-28T00:56:07.513Z,1.00
2023-02-28T00:58:34.539Z,1.00
2023-02-28T01:01:08.773Z,1.10
2023-02-28T01:03:39.389Z,1.10
2023-02-28T01:06:07.951Z,1.10
2023-02-28T01:08:35.735Z,1.10
2023-02-28T01:11:10.864Z,1.00
2023-02-28T01:13:38.155Z,1.10
2023-02-28T01:16:05.509Z,1.10
2023-02-28T01:18:32.560Z,1.00
2023-02-28T01:20:59.475Z,1.00
2023-02-28T01:23:26.488Z,0.90
2023-02-28T01:25:53.870Z,0.90
2023-02-28T01:28:21.239Z,0.80
2023-02-28T01:30:52.003Z,0.80
2023-02-28T01:33:19.331Z,0.70
2023-02-28T01:35:46.391Z,0.60
2023-02-28T01:38:22.083Z,0.60
2023-02-28T01:40:50.202Z,0.50
2023-02-28T01:43:21.817Z,0.50
2023-02-28T01:45:49.023Z,0.50
2023-02-28T01:48:16.731Z,0.40
2023-02-28T01:50:48.277Z,0.40
2023-02-28T01:53:20.403Z,0.40
2023-02-28T01:55:53.002Z,0.40
2023-02-28T01:58:20.190Z,0.40
2023-02-28T02:00:47.688Z,0.30
2023-02-28T02:03:19.998Z,0.20
2023-02-28T02:05:48.909Z,0.10
2023-02-28T02:08:24.960Z,0.10
2023-02-28T02:10:56.041Z,0.10
2023-02-28T02:13:41.641Z,0.10
2023-02-28T02:16:20.628Z,0.00
2023-02-28T02:19:09.065Z,-0.10
2023-02-28T02:21:57.845Z,-0.10
2023-02-28T02:25:09.142Z,-0.10
2023-02-28T02:28:15.086Z,-0.10
2023-02-28T02:30:56.727Z,-0.20
2023-02-28T02:33:26.382Z,-0.20
2023-02-28T02:36:05.315Z,-0.20
2023-02-28T02:38:55.922Z,-0.30
2023-02-28T02:41:47.398Z,-0.30
2023-02-28T02:44:22.954Z,-0.30
2023-02-28T02:46:54.062Z,-0.40
2023-02-28T02:49:31.825Z,-0.30
2023-02-28T02:52:03.809Z,-0.40
2023-02-28T02:54:38.319Z,-0.40
2023-02-28T02:57:09.856Z,-0.30
2023-02-28T02:59:39.427Z,-0.30
2023-02-28T03:02:11.183Z,-0.40
2023-02-28T03:04:43.970Z,-0.40
2023-02-28T03:07:11.056Z,-0.40
2023-02-28T03:09:38.531Z,-0.40
2023-02-28T03:12:10.614Z,-0.40
2023-02-28T03:14:44.740Z,-0.40
2023-02-28T03:17:39.424Z,-0.50
2023-02-28T03:20:23.948Z,-0.50
2023-02-28T03:23:04.201Z,-0.50
2023-02-28T03:25:34.196Z,-0.50
2023-02-28T03:28:17.100Z,-0.50
2023-02-28T03:30:55.631Z,-0.50
2023-02-28T03:33:27.362Z,-0.50
2023-02-28T03:36:02.765Z,-0.60
2023-02-28T03:38:39.410Z,-0.60
2023-02-28T03:41:10.660Z,-0.60
2023-02-28T03:43:42.387Z,-0.60
2023-02-28T03:46:13.887Z,-0.60
2023-02-28T03:48:47.116Z,-0.60
2023-02-28T03:51:18.532Z,-0.60
2023-02-28T03:53:52.546Z,-0.60
2023-02-28T03:56:34.313Z,-0.60
2023-02-28T03:59:26.126Z,-0.60
2023-02-28T04:01:53.149Z,-0.60
2023-02-28T04:04:20.205Z,-0.60
2023-02-28T04:06:51.620Z,-0.60
2023-02-28T04:09:18.732Z,-0.70
2023-02-28T04:11:53.017Z,-0.70
2023-02-28T04:14:20.073Z,-0.70
2023-02-28T04:16:47.069Z,-0.60
2023-02-28T04:19:15.326Z,-0.60
2023-02-28T04:21:45.034Z,-0.60
2023-02-28T04:24:15.314Z,-0.60
2023-02-28T04:26:44.750Z,-0.60
2023-02-28T04:29:14.606Z,-0.60
2023-02-28T04:31:41.788Z,-0.50
2023-02-28T04:34:09.053Z,-0.50
2023-02-28T04:36:36.145Z,-0.50
2023-02-28T04:39:03.409Z,-0.60
2023-02-28T04:41:32.637Z,-0.60
2023-02-28T04:44:00.381Z,-0.60
2023-02-28T04:46:27.433Z,-0.60
2023-02-28T04:48:55.597Z,-0.70
2023-02-28T04:51:23.076Z,-0.70
2023-02-28T04:53:50.068Z,-0.70
2023-02-28T04:56:18.915Z,-0.70
2023-02-28T04:58:46.191Z,-0.70
2023-02-28T05:01:29.651Z,-0.70
2023-02-28T05:03:58.761Z,-0.70
2023-02-28T05:06:28.131Z,-0.70
2023-02-28T05:08:55.245Z,-0.70
2023-02-28T05:11:27.758Z,-0.70
2023-02-28T05:13:55.250Z,-0.70
2023-02-28T05:16:22.534Z,-0.70
2023-02-28T05:18:49.689Z,-0.70
2023-02-28T05:21:31.321Z,-0.70
2023-02-28T05:24:01.039Z,-0.70
2023-02-28T05:26:28.991Z,-0.70
2023-02-28T05:28:56.091Z,-0.70
2023-02-28T05:31:23.517Z,-0.80
2023-02-28T05:33:50.501Z,-0.80
2023-02-28T05:36:17.509Z,-0.70
2023-02-28T05:38:46.548Z,-0.70
2023-02-28T05:41:13.375Z,-0.60
2023-02-28T05:43:40.284Z,-0.60
2023-02-28T05:46:09.148Z,-0.60
2023-02-28T05:48:38.073Z,-0.60
2023-02-28T05:51:06.465Z,-0.50
2023-02-28T05:53:34.005Z,-0.60
2023-02-28T05:56:01.188Z,-0.60
2023-02-28T05:58:32.230Z,-0.60
2023-02-28T06:01:20.483Z,-0.70
2023-02-28T06:03:47.451Z,-0.70
2023-02-28T06:06:14.406Z,-0.70
2023-02-28T06:08:41.418Z,-0.60
2023-02-28T06:11:08.504Z,-0.60
2023-02-28T06:13:35.606Z,-0.60
2023-02-28T06:16:03.089Z,-0.60
2023-02-28T06:18:30.160Z,-0.60
2023-02-28T06:20:57.270Z,-0.50
2023-02-28T06:23:24.208Z,-0.50
2023-02-28T06:25:51.572Z,-0.50
2023-02-28T06:28:18.563Z,-0.60
2023-02-28T06:30:46.577Z,-0.60
2023-02-28T06:33:13.947Z,-0.60
2023-02-28T06:35:40.921Z,-0.60
2023-02-28T06:38:07.984Z,-0.50
2023-02-28T06:40:36.932Z,-0.50
2023-02-28T06:43:04.359Z,-0.50
2023-02-28T06:45:31.513Z,-0.40
2023-02-28T06:47:59.181Z,-0.40
2023-02-28T06:50:26.140Z,-0.40
2023-02-28T06:52:55.055Z,-0.40
2023-02-28T06:55:22.115Z,-0.30
2023-02-28T06:57:51.513Z,-0.40
2023-02-28T07:00:18.917Z,-0.30
2023-02-28T07:02:45.943Z,-0.30
2023-02-28T07:05:12.933Z,-0.30
2023-02-28T07:07:44.657Z,-0.20
2023-02-28T07:10:12.560Z,-0.20
2023-02-28T07:12:39.449Z,-0.20
2023-02-28T07:15:07.158Z,-0.10
2023-02-28T07:17:34.240Z,-0.10
2023-02-28T07:20:01.144Z,-0.10
2023-02-28T07:22:29.694Z,0.00
2023-02-28T07:24:56.511Z,0.00
2023-02-28T07:27:26.722Z,0.00
2023-02-28T07:29:54.234Z,0.10
2023-02-28T07:32:22.054Z,0.20
2023-02-28T07:34:49.535Z,0.20
2023-02-28T07:37:16.489Z,0.20
2023-02-28T07:39:43.618Z,0.30
2023-02-28T07:42:12.894Z,0.40
2023-02-28T07:44:43.617Z,0.40
2023-02-28T07:47:11.443Z,0.50
2023-02-28T07:49:38.735Z,0.50
2023-02-28T07:52:08.023Z,0.60
2023-02-28T07:54:35.144Z,0.60
2023-02-28T07:57:02.077Z,0.70
2023-02-28T07:59:31.850Z,0.80
2023-02-28T08:02:00.276Z,0.80
2023-02-28T08:04:27.673Z,0.80
2023-02-28T08:06:54.717Z,0.90
2023-02-28T08:09:21.689Z,0.90
2023-02-28T08:11:48.647Z,1.00
2023-02-28T08:14:15.761Z,1.10
2023-02-28T08:16:44.020Z,1.10
2023-02-28T08:19:11.042Z,1.20
2023-02-28T08:21:38.026Z,1.30
2023-02-28T08:24:05.369Z,1.40
2023-02-28T08:26:32.539Z,1.50
2023-02-28T08:29:01.441Z,1.60
2023-02-28T08:31:29.032Z,1.70
2023-02-28T08:33:59.747Z,1.70
2023-02-28T08:36:29.702Z,1.90
2023-02-28T08:38:58.144Z,2.10
2023-02-28T08:41:24.978Z,2.10
2023-02-28T08:43:51.848Z,2.30
2023-02-28T08:46:19.208Z,2.50
2023-02-28T08:48:46.441Z,2.90
2023-02-28T08:51:19.757Z,3.40
2023-02-28T08:53:47.029Z,4.00
2023-02-28T08:56:17.681Z,4.30
2023-02-28T08:58:45.656Z,4.70
2023-02-28T09:01:15.233Z,5.00
2023-02-28T09:03:43.418Z,5.40
2023-02-28T09:06:11.888Z,5.70
2023-02-28T09:08:39.322Z,6.10
2023-02-28T09:32:25.046Z,7.90
2023-02-28T09:34:52.159Z,7.60
2023-02-28T09:37:19.100Z,7.80
2023-02-28T09:39:46.020Z,7.60
2023-02-28T09:42:24.625Z,7.60
2023-02-28T09:44:52.103Z,7.70
2023-02-28T09:47:34.532Z,7.50
2023-02-28T09:50:18.558Z,7.80
2023-02-28T09:52:48.177Z,7.80
2023-02-28T09:55:46.683Z,7.60
2023-02-28T09:58:25.059Z,7.40
2023-02-28T10:01:08.418Z,7.10
2023-02-28T10:03:38.232Z,7.10
2023-02-28T10:06:05.218Z,7.20
2023-02-28T10:08:46.187Z,7.10
2023-02-28T10:11:17.638Z,6.90
2023-02-28T10:14:03.578Z,6.70
2023-02-28T10:16:36.818Z,6.40
2023-02-28T10:19:05.761Z,6.30
2023-02-28T10:21:43.464Z,6.60
2023-02-28T10:24:30.025Z,6.50
2023-02-28T10:27:03.108Z,5.70
2023-02-28T10:29:33.914Z,5.50
2023-02-28T10:32:03.836Z,5.30
2023-02-28T10:34:31.170Z,5.20
2023-02-28T10:37:08.507Z,5.20
2023-02-28T10:39:38.754Z,5.50
2023-02-28T10:42:06.497Z,5.70
2023-02-28T10:44:33.745Z,5.70
2023-02-28T10:47:01.200Z,5.60
2023-02-28T10:49:30.085Z,5.50
2023-02-28T10:52:00.246Z,5.40
2023-02-28T10:54:38.907Z,6.00
2023-02-28T10:57:29.565Z,6.40
2023-02-28T11:00:22.564Z,6.70
2023-02-28T11:02:49.910Z,7.10
2023-02-28T11:05:32.015Z,7.50
2023-02-28T11:08:15.303Z,7.60
2023-02-28T11:10:47.640Z,7.30
2023-02-28T11:13:24.179Z,7.30
2023-02-28T11:16:01.203Z,7.20
2023-02-28T11:18:54.198Z,7.70
2023-02-28T11:21:34.930Z,8.20
2023-02-28T11:24:05.101Z,8.50
2023-02-28T11:26:51.846Z,8.90
2023-02-28T11:29:29.283Z,9.00
2023-02-28T11:32:09.601Z,9.40
2023-02-28T11:34:38.722Z,9.70
2023-02-28T11:37:10.801Z,9.80
2023-02-28T11:39:37.896Z,9.90
2023-02-28T11:42:16.968Z,10.20
2023-02-28T11:44:58.989Z,10.00
2023-02-28T11:47:26.017Z,10.30
2023-02-28T11:50:04.656Z,10.50
2023-02-28T11:52:47.119Z,10.80
2023-02-28T11:55:23.190Z,11.00
2023-02-28T11:58:05.004Z,11.10
2023-02-28T12:00:58.312Z,11.30
2023-02-28T12:03:49.267Z,11.30
2023-02-28T12:06:39.644Z,11.50
2023-02-28T12:09:30.975Z,11.60
2023-02-28T12:12:09.076Z,11.40
2023-02-28T12:14:51.055Z,11.00
2023-02-28T12:17:36.435Z,10.70
2023-02-28T12:20:18.916Z,10.30
2023-02-28T12:23:02.067Z,10.60
2023-02-28T12:26:03.308Z,10.90
2023-02-28T12:28:45.213Z,11.20
2023-02-28T12:31:26.161Z,11.60
2023-02-28T12:33:57.691Z,11.80
2023-02-28T12:36:27.408Z,12.10
2023-02-28T12:39:02.645Z,11.60
2023-02-28T12:41:43.352Z,11.20
2023-02-28T12:44:19.264Z,11.50
2023-02-28T12:46:51.795Z,11.70
2023-02-28T12:49:22.869Z,12.00
2023-02-28T12:51:51.209Z,12.10
2023-02-28T12:54:45.518Z,12.00
2023-02-28T12:57:39.624Z,12.10
2023-02-28T13:00:15.563Z,12.80
2023-02-28T13:02:42.505Z,13.30
2023-02-28T13:05:29.768Z,13.00
2023-02-28T13:08:23.120Z,13.20
2023-02-28T13:10:55.418Z,13.30
2023-02-28T13:13:29.231Z,13.20
2023-02-28T13:16:07.268Z,12.90
2023-02-28T13:18:47.541Z,13.20
2023-02-28T13:21:29.946Z,13.60
2023-02-28T13:24:04.806Z,13.70
2023-02-28T13:26:31.891Z,13.60
2023-02-28T13:29:16.876Z,13.40
2023-02-28T13:32:09.652Z,13.70
2023-02-28T13:34:56.962Z,14.40
2023-02-28T13:37:26.821Z,14.40
2023-02-28T13:40:38.840Z,14.40
2023-02-28T13:43:09.954Z,14.30
2023-02-28T13:45:40.780Z,14.60
2023-02-28T13:48:18.288Z,14.60
2023-02-28T13:50:45.959Z,14.50
2023-02-28T13:53:15.608Z,14.90
2023-02-28T13:55:57.777Z,15.20
2023-02-28T13:58:47.824Z,15.60
2023-02-28T14:01:41.353Z,15.50
2023-02-28T14:04:26.805Z,15.00
2023-02-28T14:06:56.562Z,15.00
2023-02-28T14:09:36.502Z,14.90
2023-02-28T14:12:40.439Z,15.30
2023-02-28T14:15:29.570Z,15.80
2023-02-28T14:17:57.386Z,15.70
2023-02-28T14:20:28.759Z,15.00
2023-02-28T14:23:12.004Z,14.60
2023-02-28T14:25:43.163Z,14.20
2023-02-28T14:28:13.006Z,14.60
2023-02-28T14:31:11.076Z,14.70
2023-02-28T14:33:48.930Z,14.70
2023-02-28T14:36:21.671Z,14.70
2023-02-28T14:38:49.434Z,14.80
2023-02-28T14:41:24.876Z,14.90
2023-02-28T14:43:58.253Z,14.30
2023-02-28T14:46:48.295Z,14.30
2023-02-28T14:49:18.770Z,14.80
2023-02-28T14:51:46.224Z,14.90
2023-02-28T14:54:17.640Z,15.10
2023-02-28T14:56:44.849Z,14.20
2023-02-28T14:59:31.359Z,14.30
2023-02-28T15:02:24.111Z,14.30
2023-02-28T15:05:03.488Z,14.10
2023-02-28T15:07:30.990Z,14.10
2023-02-28T15:10:21.582Z,13.60
2023-02-28T15:12:57.486Z,13.50
2023-02-28T15:16:00.948Z,13.60
2023-02-28T15:18:49.818Z,13.20
2023-02-28T15:21:23.633Z,13.70
2023-02-28T15:24:33.897Z,13.50
2023-02-28T15:27:05.172Z,13.30
2023-02-28T15:29:43.950Z,12.90
2023-02-28T15:32:25.458Z,12.40
2023-02-28T15:34:52.648Z,12.30
2023-02-28T15:37:33.317Z,12.30
2023-02-28T15:40:07.174Z,12.20
2023-02-28T15:42:34.134Z,12.10
2023-02-28T15:45:01.012Z,12.60
2023-02-28T15:47:30.323Z,12.10
2023-02-28T15:50:04.478Z,11.80
2023-02-28T15:52:49.770Z,11.70
2023-02-28T15:55:25.631Z,11.70
2023-02-28T15:57:56.066Z,11.70
2023-02-28T16:00:24.991Z,11.50
2023-02-28T16:02:52.339Z,11.30
2023-02-28T16:05:31.730Z,11.50
2023-02-28T16:08:01.246Z,11.40
2023-02-28T16:10:30.841Z,11.00
2023-02-28T16:12:59.069Z,11.10
2023-02-28T16:15:42.722Z,11.00
2023-02-28T16:18:12.377Z,10.90
2023-02-28T16:20:39.658Z,10.80
2023-02-28T16:23:06.753Z,10.50
2023-02-28T16:25:40.404Z,10.40
2023-02-28T16:28:37.868Z,10.60
2023-02-28T16:31:06.340Z,10.20
2023-02-28T16:33:35.864Z,10.10
2023-02-28T16:36:03.001Z,9.90
2023-02-28T16:38:29.877Z,9.60
2023-02-28T16:40:58.868Z,9.20
2023-02-28T16:43:28.212Z,9.00
2023-02-28T16:56:27.522Z,8.60
2023-02-28T16:59:00.303Z,7.50
2023-02-28T17:01:29.131Z,7.20
2023-02-28T17:03:56.531Z,7.00
2023-02-28T17:06:28.226Z,7.00
2023-02-28T17:08:56.298Z,6.90
2023-02-28T17:11:23.821Z,6.80
2023-02-28T17:13:50.900Z,6.60
2023-02-28T17:16:27.668Z,6.50
2023-02-28T17:18:58.687Z,6.40
2023-02-28T17:21:25.882Z,6.20
2023-02-28T17:23:52.892Z,6.10
2023-02-28T17:26:22.329Z,5.90
2023-02-28T17:28:50.169Z,5.80
2023-02-28T17:31:17.129Z,5.60
2023-02-28T17:33:44.422Z,5.50
2023-02-28T17:36:16.586Z,5.40
2023-02-28T17:38:43.678Z,5.30
2023-02-28T17:41:12.024Z,5.30
2023-02-28T17:43:39.260Z,5.20
2023-02-28T17:46:07.541Z,5.20
2023-02-28T17:48:34.763Z,5.20
2023-02-28T17:51:01.622Z,5.10
2023-02-28T17:53:28.612Z,5.00
2023-02-28T17:55:55.710Z,5.00
2023-02-28T17:58:22.680Z,4.90
2023-02-28T18:00:54.813Z,4.90
2023-02-28T18:03:22.205Z,4.90
2023-02-28T18:05:50.188Z,4.80
2023-02-28T18:08:17.723Z,4.80
2023-02-28T18:10:44.617Z,4.70
2023-02-28T18:13:13.595Z,4.70
2023-02-28T18:15:40.723Z,4.60
2023-02-28T18:18:07.747Z,4.50
2023-02-28T18:20:36.011Z,4.50
2023-02-28T18:23:03.686Z,4.50
2023-02-28T18:25:30.497Z,4.50
2023-02-28T18:28:00.799Z,4.40
2023-02-28T18:30:31.498Z,4.30
2023-02-28T18:33:02.426Z,4.30
2023-02-28T18:35:36.405Z,4.20
2023-02-28T18:38:13.935Z,4.20
2023-02-28T18:40:42.217Z,4.20
2023-02-28T18:43:09.665Z,4.10
2023-02-28T18:45:38.696Z,4.10
2023-02-28T18:48:06.385Z,4.10
2023-02-28T18:50:33.242Z,4.00
2023-02-28T18:53:00.185Z,4.00
2023-02-28T18:55:27.953Z,4.00
2023-02-28T18:57:54.849Z,3.90
2023-02-28T19:00:22.842Z,3.80
2023-02-28T19:02:50.719Z,3.80
2023-02-28T19:05:19.176Z,3.70
2023-02-28T19:07:47.016Z,3.70
2023-02-28T19:10:14.407Z,3.70
2023-02-28T19:12:43.327Z,3.60
2023-02-28T19:15:11.436Z,3.60
2023-02-28T19:17:38.684Z,3.60
2023-02-28T19:20:06.933Z,3.70
2023-02-28T19:22:33.939Z,3.60
2023-02-28T19:25:00.794Z,3.50
2023-02-28T19:27:27.734Z,3.40
2023-02-28T19:29:54.704Z,3.40
2023-02-28T19:32:21.776Z,3.40
2023-02-28T19:34:48.778Z,3.30
2023-02-28T19:37:15.834Z,3.30
2023-02-28T19:39:46.297Z,3.30
2023-02-28T19:42:16.234Z,3.20
2023-02-28T19:44:43.773Z,3.20
2023-02-28T19:47:11.422Z,3.20
2023-02-28T19:49:38.268Z,3.20
2023-02-28T19:52:05.631Z,3.20
2023-02-28T19:54:32.552Z,3.10
2023-02-28T19:56:59.914Z,3.10
2023-02-28T19:59:38.376Z,3.10
2023-02-28T20:02:12.952Z,3.10
2023-02-28T20:04:40.012Z,3.00
2023-02-28T20:07:06.943Z,3.00
2023-02-28T20:09:34.013Z,3.00
2023-02-28T20:12:01.688Z,2.90
2023-02-28T20:14:29.798Z,2.90
2023-02-28T20:16:58.278Z,2.90
2023-02-28T20:19:25.675Z,2.90
2023-02-28T20:21:52.576Z,2.80
2023-02-28T20:24:21.065Z,2.80
2023-02-28T20:26:47.993Z,2.80
2023-02-28T20:29:15.109Z,2.80
2023-02-28T20:31:42.213Z,2.70
2023-02-28T20:34:09.356Z,2.70
2023-02-28T20:36:36.702Z,2.70
2023-02-28T20:39:04.253Z,2.60
2023-02-28T20:41:31.212Z,2.60
2023-02-28T20:43:59.035Z,2.60
2023-02-28T20:46:26.759Z,2.60
2023-02-28T20:48:54.230Z,2.60
2023-02-28T20:51:21.870Z,2.50
2023-02-28T20:53:48.908Z,2.50
2023-02-28T20:56:19.157Z,2.50
2023-02-28T20:58:48.397Z,2.50
2023-02-28T21:01:26.395Z,2.40
2023-02-28T21:03:56.459Z,2.50
2023-02-28T21:06:26.574Z,2.50
2023-02-28T21:08:53.920Z,2.40
2023-02-28T21:11:24.364Z,2.40
2023-02-28T21:13:51.849Z,2.30
2023-02-28T21:16:21.724Z,2.30
2023-02-28T21:18:49.638Z,2.30
2023-02-28T21:21:19.134Z,2.20
2023-02-28T21:23:49.677Z,2.20
2023-02-28T21:26:19.503Z,2.20
2023-02-28T21:28:51.324Z,2.20
2023-02-28T21:31:19.847Z,2.20
2023-02-28T21:33:47.010Z,2.20
2023-02-28T21:36:17.150Z,2.10
2023-02-28T21:38:46.559Z,2.10
2023-02-28T21:41:16.918Z,2.00
2023-02-28T21:43:44.890Z,2.00
2023-02-28T21:46:14.550Z,2.00
2023-02-28T21:48:42.365Z,2.00
2023-02-28T21:51:13.711Z,2.00
2023-02-28T21:53:41.834Z,1.90
2023-02-28T21:56:19.415Z,2.00
2023-02-28T21:58:47.221Z,1.90
2023-02-28T22:01:20.039Z,1.90
2023-02-28T22:03:48.530Z,1.80
2023-02-28T22:06:18.808Z,1.80
2023-02-28T22:08:47.843Z,1.80
2023-02-28T22:11:16.734Z,1.80
2023-02-28T22:13:44.059Z,1.70
2023-02-28T22:16:13.701Z,1.70
2023-02-28T22:18:41.326Z,1.70
2023-02-28T22:21:09.965Z,1.70
2023-02-28T22:23:38.621Z,1.60
2023-02-28T22:26:08.675Z,1.60
2023-02-28T22:28:36.368Z,1.60
2023-02-28T22:31:22.296Z,1.50
2023-02-28T22:33:50.537Z,1.50
2023-02-28T22:36:18.958Z,1.50
2023-02-28T22:38:47.377Z,1.50
2023-02-28T22:41:14.497Z,1.40
2023-02-28T22:43:44.257Z,1.40
2023-02-28T22:46:13.652Z,1.40
2023-02-28T22:48:40.727Z,1.40
2023-02-28T22:51:12.988Z,1.30
2023-02-28T22:53:40.580Z,1.30
2023-02-28T22:56:09.190Z,1.30
2023-02-28T22:58:36.578Z,1.30
2023-02-28T23:01:08.268Z,1.30
2023-02-28T23:03:35.362Z,1.30
2023-02-28T23:06:11.234Z,1.20
2023-02-28T23:08:38.111Z,1.20
2023-02-28T23:11:05.195Z,1.20
2023-02-28T23:13:32.331Z,1.10
2023-02-28T23:15:59.356Z,1.10
2023-02-28T23:18:26.319Z,1.10
2023-02-28T23:20:56.592Z,1.10
2023-02-28T23:23:24.068Z,1.10
2023-02-28T23:25:50.880Z,1.10
2023-02-28T23:28:17.747Z,1.10
2023-02-28T23:30:44.615Z,1.10
2023-02-28T23:33:11.414Z,1.00
2023-02-28T23:35:38.414Z,1.00
2023-02-28T23:38:05.440Z,1.00
2023-02-28T23:40:32.289Z,1.10
2023-02-28T23:42:59.370Z,1.00
2023-02-28T23:45:26.410Z,1.00
2023-02-28T23:47:53.336Z,1.00
2023-02-28T23:50:20.437Z,1.00
2023-02-28T23:52:47.999Z,1.00
2023-02-28T23:55:15.014Z,1.00
2023-02-28T23:57:42.175Z,1.10
